PDT,Max TemperatureF,Mean TemperatureF,Min TemperatureF,Max Dew PointF,MeanDew PointF,Min DewpointF,Max Humidity, Mean Humidity, Min Humidity, Max Sea Level PressureIn, Mean Sea Level PressureIn, Min Sea Level PressureIn, Max VisibilityMiles, Mean VisibilityMiles, Min VisibilityMiles, Max Wind SpeedMPH, Mean Wind SpeedMPH, Max Gust SpeedMPH,PrecipitationIn, CloudCover, Events, WindDirDegrees
2012-7-1,67,60,55,54,50,47,88,71,51,30.09,30.05,29.99,10,10,10,10,6,,0.00,7,,219
2012-7-2,65,58,50,54,50,48,100,77,58,30.05,29.96,29.91,10,10,6,12,4,,0.03,7,Rain,251
2012-7-3,63,56,46,53,50,45,97,80,59,30.17,30.02,29.86,10,10,4,21,10,28,0.13,7,Rain,212
2012-7-4,69,56,45,48,46,43,97,61,43,30.15,30.05,29.98,10,7,2,12,4,,0.00,1,,18
2012-7-5,77,59,42,49,44,34,100,72,21,30.05,30.02,30.00,10,6,0,9,2,,0.00,0,Fog,113
2012-7-6,78,62,45,56,49,43,92,64,33,30.15,30.10,30.05,10,10,10,13,4,,0.00,0,,248
2012-7-7,79,64,50,55,52,49,94,62,36,30.17,30.11,30.04,10,10,10,14,4,17,0.00,0,,7
2012-7-8,84,67,51,60,54,48,95,62,29,30.10,30.05,29.99,10,10,10,12,4,,0.00,1,Rain,345
2012-7-9,77,66,55,59,55,52,94,77,54,30.15,30.10,30.07,10,10,10,8,5,,0.00,4,,275
2012-7-10,74,64,53,56,53,50,93,77,45,30.23,30.17,30.09,10,10,6,10,3,,0.00,4,,270
2012-7-11,83,66,50,60,55,50,100,83,44,30.10,30.07,29.99,10,6,0,8,2,,0.00,2,Fog,176
2012-7-12,76,66,55,60,56,54,100,87,55,30.03,30.01,29.98,10,6,0,10,4,,0.00,3,Fog,262
2012-7-13,76,65,55,62,55,53,94,80,53,30.07,30.03,29.97,10,8,2,7,3,,0.01,6,Rain-Thunderstorm,219
2012-7-14,77,67,58,63,59,57,100,92,57,30.01,29.98,29.94,10,5,0,8,3,,0.00,6,Fog,289
2012-7-15,66,61,57,58,53,50,94,76,60,29.97,29.95,29.92,10,10,9,20,9,25,0.00,8,,231
2012-7-16,78,66,55,59,57,54,100,86,50,29.95,29.90,29.81,10,8,0,10,3,16,0.11,5,Fog-Rain,1
2012-7-17,71,66,59,60,58,56,93,79,67,29.96,29.87,29.82,10,10,10,8,4,,0.00,3,,255
2012-7-18,69,64,59,58,56,55,88,78,67,30.09,30.02,29.95,10,10,10,12,6,,0.00,8,,254
2012-7-19,78,68,59,60,56,54,82,70,53,30.09,30.03,29.93,10,10,10,9,5,,0.00,6,,323
2012-7-20,66,62,57,62,59,57,100,92,73,30.22,30.09,29.98,10,8,1,12,5,17,0.62,8,Rain-Thunderstorm,239
2012-7-21,75,67,59,58,56,53,97,74,47,30.22,30.18,30.10,10,10,10,10,4,,0.00,6,,243
2012-7-22,67,60,52,54,51,46,95,77,53,30.19,30.11,30.09,10,9,4,16,6,,0.00,7,Rain,217
2012-7-23,66,56,47,53,50,46,100,76,63,30.25,30.22,30.18,10,10,10,15,8,23,0.00,6,,185
2012-7-24,72,59,46,52,49,46,100,84,47,30.18,30.12,30.01,10,6,0,16,3,20,0.00,0,Fog,83
2012-7-25,80,64,48,59,54,48,98,69,47,30.05,30.00,29.93,10,10,8,8,3,,0.00,0,,36
2012-7-26,79,67,55,62,56,54,100,90,53,30.01,29.98,29.92,10,5,0,9,4,,0.00,5,Fog,270
2012-7-27,69,62,56,57,55,53,94,77,64,30.14,30.07,29.98,10,10,10,10,8,,0.00,8,,239
2012-7-28,70,64,57,55,54,53,91,77,56,30.18,30.16,30.13,10,10,10,8,5,,0.00,8,,208
2012-7-29,73,66,58,55,54,53,83,69,51,30.20,30.16,30.12,10,10,10,9,5,,0.00,6,,283
2012-7-30,66,58,51,55,52,50,95,77,64,30.20,30.17,30.15,10,10,10,10,5,,0.00,7,,226
2012-7-31,73,64,56,54,52,50,80,68,49,30.19,30.18,30.16,10,10,10,6,4,,0.00,6,Rain,309